Time;durP1;ratioP1;P1;durP2;ratioP2;P2;SDS_P1;SDS_P2;PMS_P1;PMS_P2;Temp;Humidity;BMP_temperature;BMP_pressure;BME280_temperature;BME280_humidity;BME280_pressure;Samples;Min_cycle;Max_cycle;Signal;HPM_P1;HPM_P2
2023/10/03 00:00:54;;;;;;;7.00;3.50;;;;;;;14.78;89.72;97263.43;111913;1244;24106;-83
2023/10/03 00:03:42;;;;;;;8.30;3.90;;;;;;;14.79;89.54;97268.38;111926;1244;22565;-82
2023/10/03 00:06:12;;;;;;;8.50;4.50;;;;;;;14.79;89.37;97269.50;111876;1244;28935;-82
2023/10/03 00:08:44;;;;;;;5.80;3.70;;;;;;;14.78;89.36;97261.49;111905;1244;22642;-82
2023/10/03 00:11:18;;;;;;;8.10;4.00;;;;;;;14.78;88.98;97257.19;111906;1244;25073;-82
2023/10/03 00:13:49;;;;;;;8.50;4.40;;;;;;;14.81;88.94;97259.11;111925;1243;22552;-82
2023/10/03 00:16:21;;;;;;;9.30;4.30;;;;;;;14.81;88.71;97258.16;111903;1244;22495;-82
2023/10/03 00:18:50;;;;;;;5.90;3.90;;;;;;;14.81;88.60;97259.11;111975;1244;25289;-82
2023/10/03 00:21:18;;;;;;;7.00;4.20;;;;;;;14.83;88.44;97257.05;111926;1244;27173;-81
2023/10/03 00:23:47;;;;;;;6.60;3.70;;;;;;;14.85;88.36;97259.48;111900;1244;22501;-81
2023/10/03 00:26:17;;;;;;;8.20;4.10;;;;;;;14.83;88.17;97255.02;111923;1244;22494;-82
2023/10/03 00:28:45;;;;;;;8.80;4.40;;;;;;;14.82;88.09;97251.14;111950;1244;25459;-81
2023/10/03 00:31:14;;;;;;;6.70;3.30;;;;;;;14.83;87.95;97253.33;111919;1244;23711;-82
2023/10/03 00:33:42;;;;;;;9.00;5.00;;;;;;;14.82;87.82;97247.13;111921;1244;23256;-81
2023/10/03 00:36:22;;;;;;;5.50;3.60;;;;;;;14.85;87.83;97243.99;111893;1244;68483;-82
2023/10/03 00:38:50;;;;;;;7.40;3.80;;;;;;;14.90;87.54;97238.31;111914;1244;22532;-82
2023/10/03 00:41:20;;;;;;;6.70;3.40;;;;;;;14.95;87.41;97239.48;111908;1244;22506;-81
2023/10/03 00:43:58;;;;;;;6.00;3.60;;;;;;;14.93;87.20;97241.32;111941;1244;25308;-81
2023/10/03 00:46:29;;;;;;;7.70;3.50;;;;;;;14.89;87.10;97241.59;111612;1244;22953;-81
2023/10/03 00:49:03;;;;;;;6.40;3.90;;;;;;;14.85;87.05;97234.33;111973;1244;22537;-82
2023/10/03 00:51:32;;;;;;;5.70;3.30;;;;;;;14.87;87.03;97230.14;111919;1244;22502;-81
2023/10/03 00:54:02;;;;;;;6.70;3.80;;;;;;;14.91;86.91;97231.36;111921;1244;42325;-80
2023/10/03 00:56:30;;;;;;;;;;;;;;;14.92;86.71;97235.83;111920;1244;22487;-81
2023/10/03 00:58:59;;;;;;;6.60;3.80;;;;;;;14.92;86.62;97233.42;111911;1244;22501;-82
2023/10/03 01:01:33;;;;;;;6.60;3.70;;;;;;;14.91;86.40;97234.02;111899;1244;22500;-82
2023/10/03 01:04:16;;;;;;;9.00;3.70;;;;;;;14.90;86.27;97233.89;111923;1244;31605;-81
2023/10/03 01:06:48;;;;;;;7.50;4.20;;;;;;;14.90;86.34;97242.27;111920;1244;22602;-82
2023/10/03 01:09:23;;;;;;;6.80;3.90;;;;;;;14.87;86.24;97238.52;111943;1244;22523;-82
2023/10/03 01:11:53;;;;;;;6.10;3.60;;;;;;;14.82;86.20;97231.02;111942;1244;23753;-81
2023/10/03 01:14:22;;;;;;;6.50;3.80;;;;;;;14.78;86.19;97227.77;111883;1244;34729;-81
2023/10/03 01:16:51;;;;;;;9.20;3.70;;;;;;;14.76;86.16;97225.69;111900;1244;22498;-81
2023/10/03 01:19:20;;;;;;;9.70;3.80;;;;;;;14.72;86.04;97217.91;111924;1244;25215;-81
2023/10/03 01:21:50;;;;;;;7.10;3.80;;;;;;;14.66;86.03;97214.55;111927;1244;25270;-81
2023/10/03 01:24:21;;;;;;;6.50;3.50;;;;;;;14.59;86.05;97207.64;111900;1244;23734;-81
2023/10/03 01:26:52;;;;;;;6.80;4.00;;;;;;;14.52;86.26;97204.98;111925;1244;22494;-81
2023/10/03 01:29:21;;;;;;;5.30;3.10;;;;;;;14.47;86.30;97199.91;111945;1244;25404;-81
2023/10/03 01:31:51;;;;;;;7.30;3.70;;;;;;;14.42;86.47;97195.09;111609;1244;22508;-82
2023/10/03 01:34:19;;;;;;;5.20;3.40;;;;;;;14.41;86.59;97188.35;111573;1244;24204;-81
2023/10/03 01:36:48;;;;;;;6.10;3.70;;;;;;;14.41;86.64;97187.08;111985;1244;25311;-82
2023/10/03 01:39:19;;;;;;;4.90;3.10;;;;;;;14.42;86.73;97190.36;111935;1244;22531;-83
2023/10/03 01:41:48;;;;;;;6.10;3.30;;;;;;;14.43;86.67;97180.10;111934;1244;22505;-81
2023/10/03 01:44:16;;;;;;;7.10;4.30;;;;;;;14.45;86.70;97177.86;111888;1244;27287;-81
2023/10/03 01:46:45;;;;;;;6.40;3.50;;;;;;;14.46;86.68;97172.02;111962;1244;22529;-81
2023/10/03 01:49:14;;;;;;;7.20;3.80;;;;;;;14.47;86.61;97177.77;111942;1244;23476;-81
2023/10/03 01:51:43;;;;;;;;;;;;;;;14.50;86.61;97178.16;111965;1244;23064;-82
2023/10/03 01:54:12;;;;;;;6.10;3.60;;;;;;;14.55;86.55;97178.05;111943;1244;31033;-81
2023/10/03 01:56:40;;;;;;;6.80;3.70;;;;;;;14.56;86.49;97176.15;111924;1244;24252;-81
2023/10/03 01:59:11;;;;;;;7.30;3.60;;;;;;;14.54;86.31;97173.73;111977;1244;25544;-81
2023/10/03 02:01:39;;;;;;;5.80;3.50;;;;;;;14.52;86.31;97172.65;111970;1244;22522;-81
2023/10/03 02:04:07;;;;;;;6.20;3.20;;;;;;;14.52;86.23;97166.98;111896;1244;66054;-81
2023/10/03 02:06:36;;;;;;;7.30;3.70;;;;;;;14.53;86.21;97167.56;111975;1244;23255;-82
2023/10/03 02:09:07;;;;;;;4.80;3.30;;;;;;;14.54;86.17;97172.98;111953;1244;22513;-81
2023/10/03 02:11:37;;;;;;;8.30;4.10;;;;;;;14.51;86.06;97170.15;111934;1244;22547;-81
2023/10/03 02:14:07;;;;;;;5.90;3.10;;;;;;;14.51;86.10;97169.58;111923;1244;36718;-82
2023/10/03 02:16:41;;;;;;;10.40;3.60;;;;;;;14.49;86.10;97169.16;111955;1244;22608;-81
2023/10/03 02:19:10;;;;;;;6.30;3.60;;;;;;;14.49;86.11;97168.62;111942;1244;22518;-82
2023/10/03 02:21:42;;;;;;;6.20;3.70;;;;;;;14.50;86.08;97168.56;111937;1244;22584;-81
2023/10/03 02:24:12;;;;;;;7.40;3.60;;;;;;;14.51;86.08;97170.58;111895;1244;49968;-81
2023/10/03 02:26:45;;;;;;;6.60;4.00;;;;;;;14.51;85.91;97164.86;111960;1244;23888;-81
2023/10/03 02:29:13;;;;;;;5.60;3.50;;;;;;;14.48;85.94;97165.15;111974;1244;24074;-81
2023/10/03 02:31:42;;;;;;;6.70;3.40;;;;;;;14.47;85.87;97166.41;111965;1244;22540;-81
2023/10/03 02:34:12;;;;;;;5.70;3.30;;;;;;;14.45;85.95;97161.33;111941;1244;54569;-81
2023/10/03 02:36:40;;;;;;;7.70;3.90;;;;;;;14.44;85.92;97158.65;111997;1244;24384;-80
2023/10/03 02:39:09;;;;;;;8.50;3.50;;;;;;;14.44;85.82;97162.61;111987;1241;24179;-81
2023/10/03 02:41:39;;;;;;;5.50;3.60;;;;;;;14.44;85.90;97155.35;111974;1244;22557;-82
2023/10/03 02:44:09;;;;;;;6.00;3.40;;;;;;;14.42;85.88;97155.98;111949;1244;33852;-82
2023/10/03 02:46:38;;;;;;;7.10;3.60;;;;;;;14.41;85.86;97151.27;111920;1244;22498;-81
2023/10/03 02:49:08;;;;;;;5.70;3.30;;;;;;;14.41;85.88;97146.31;111940;1244;22550;-81
2023/10/03 02:51:37;;;;;;;7.30;3.80;;;;;;;14.43;85.87;97146.39;111959;1244;22501;-81
2023/10/03 02:54:06;;;;;;;6.80;3.80;;;;;;;14.43;85.83;97152.46;111952;1244;35544;-82
2023/10/03 02:56:35;;;;;;;9.20;4.20;;;;;;;14.42;85.79;97146.29;111947;1244;23021;-81
2023/10/03 02:59:03;;;;;;;7.10;3.30;;;;;;;14.42;85.85;97145.98;111923;1243;22535;-81
2023/10/03 03:01:35;;;;;;;5.60;3.50;;;;;;;14.43;85.72;97143.51;111953;1244;22488;-81
2023/10/03 03:04:05;;;;;;;6.60;3.50;;;;;;;14.40;85.63;97139.98;111918;1244;49426;-80
2023/10/03 03:06:34;;;;;;;6.00;3.70;;;;;;;14.36;85.75;97138.70;111961;1244;23279;-81
2023/10/03 03:09:03;;;;;;;5.60;3.50;;;;;;;14.36;85.79;97138.48;111968;1244;22617;-81
2023/10/03 03:11:31;;;;;;;6.50;3.70;;;;;;;14.36;85.82;97135.45;111954;1244;22633;-81
2023/10/03 03:14:02;;;;;;;6.50;3.40;;;;;;;14.38;85.78;97142.47;111903;1244;59451;-80
2023/10/03 03:16:31;;;;;;;7.30;3.70;;;;;;;14.41;85.75;97138.14;111964;1244;22497;-81
2023/10/03 03:19:04;;;;;;;5.70;3.60;;;;;;;14.42;85.74;97139.45;111950;1244;24137;-81
2023/10/03 03:21:33;;;;;;;6.60;3.80;;;;;;;14.43;85.70;97131.61;111945;1244;22505;-81
2023/10/03 03:24:08;;;;;;;6.40;3.60;;;;;;;14.40;85.59;97128.09;111925;1244;22866;-81
2023/10/03 03:26:39;;;;;;;7.00;3.70;;;;;;;14.37;85.58;97124.77;111945;1244;22514;-81
2023/10/03 03:29:20;;;;;;;6.30;3.80;;;;;;;14.37;85.64;97124.82;111945;1244;22631;-81
2023/10/03 03:31:49;;;;;;;8.80;4.30;;;;;;;14.36;85.65;97122.06;111951;1244;22511;-81
2023/10/03 03:34:18;;;;;;;8.40;3.90;;;;;;;14.36;85.74;97125.32;111917;1244;41962;-81
2023/10/03 03:36:49;;;;;;;6.00;3.40;;;;;;;14.35;85.72;97113.30;111961;1244;22544;-81
2023/10/03 03:39:20;;;;;;;7.40;3.40;;;;;;;14.35;85.64;97115.39;111965;1244;22512;-82
2023/10/03 03:41:49;;;;;;;7.00;3.40;;;;;;;14.32;85.59;97115.05;111986;1244;22513;-81
2023/10/03 03:44:19;;;;;;;8.20;3.50;;;;;;;14.31;85.66;97115.29;111917;1244;35123;-81
2023/10/03 03:46:48;;;;;;;7.60;3.60;;;;;;;14.32;85.68;97107.28;112004;1244;22495;-81
2023/10/03 03:49:19;;;;;;;7.70;3.80;;;;;;;14.33;85.67;97111.20;111958;1244;24186;-81
2023/10/03 03:51:47;;;;;;;10.00;4.10;;;;;;;14.34;85.74;97110.40;111945;1244;25258;-81
2023/10/03 03:54:15;;;;;;;7.10;3.80;;;;;;;14.37;85.70;97105.67;111905;1244;72911;-81
2023/10/03 03:56:45;;;;;;;7.40;3.90;;;;;;;14.35;85.61;97103.19;111985;1244;22514;-81
2023/10/03 03:59:13;;;;;;;;;;;;;;;14.29;85.47;97104.50;111957;1244;22472;-81
2023/10/03 04:01:42;;;;;;;8.90;3.60;;;;;;;14.23;85.61;97097.23;111964;1244;25306;-82
2023/10/03 04:04:12;;;;;;;;;;;;;;;14.22;85.79;97098.48;111917;1244;55208;-82
2023/10/03 04:06:43;;;;;;;5.80;3.70;;;;;;;14.22;85.84;97094.68;111976;1244;25423;-81
2023/10/03 04:09:11;;;;;;;7.60;4.10;;;;;;;14.21;85.84;97098.41;111936;1244;22539;-81
2023/10/03 04:11:43;;;;;;;7.80;4.10;;;;;;;14.24;85.95;97104.84;111963;1244;24181;-82
2023/10/03 04:14:12;;;;;;;7.40;4.10;;;;;;;14.27;85.96;97097.60;111925;1244;56635;-81
2023/10/03 04:16:41;;;;;;;7.40;3.50;;;;;;;14.32;85.89;97100.39;111959;1244;22702;-83
2023/10/03 04:19:10;;;;;;;8.60;3.60;;;;;;;14.35;85.90;97105.91;111982;1244;22511;-81
2023/10/03 04:21:40;;;;;;;6.50;3.70;;;;;;;14.37;85.65;97104.45;111961;1244;23324;-81
2023/10/03 04:24:10;;;;;;;7.80;4.20;;;;;;;14.37;85.72;97107.33;111935;1244;30409;-80
2023/10/03 04:26:41;;;;;;;7.30;4.10;;;;;;;14.35;85.66;97100.38;111983;1242;23260;-81
2023/10/03 04:29:13;;;;;;;6.10;3.30;;;;;;;14.37;85.60;97103.44;111966;1244;22492;-82
2023/10/03 04:31:41;;;;;;;6.50;3.80;;;;;;;14.39;85.61;97104.57;111995;1244;22507;-81
2023/10/03 04:34:11;;;;;;;6.50;3.70;;;;;;;14.41;85.67;97109.77;111920;1230;87659;-81
2023/10/03 04:36:41;;;;;;;;;;;;;;;14.42;85.53;97107.66;111986;1244;22487;-80
2023/10/03 04:39:11;;;;;;;8.90;4.80;;;;;;;14.47;85.47;97109.20;111982;1244;22514;-81
2023/10/03 04:41:43;;;;;;;9.50;4.20;;;;;;;14.47;85.37;97110.64;111946;1244;22510;-78
2023/10/03 04:44:15;;;;;;;7.70;4.00;;;;;;;14.45;85.35;97111.42;111943;1244;41599;-81
2023/10/03 04:46:48;;;;;;;6.70;3.60;;;;;;;14.42;85.33;97104.47;111952;1244;22542;-81
2023/10/03 04:49:17;;;;;;;7.00;4.30;;;;;;;14.43;85.43;97101.35;111993;1244;22499;-81
2023/10/03 04:51:47;;;;;;;7.40;4.10;;;;;;;14.43;85.30;97101.77;111966;1244;22672;-81
2023/10/03 04:54:16;;;;;;;6.50;4.20;;;;;;;14.41;85.34;97100.81;111942;1244;69926;-81
2023/10/03 04:56:45;;;;;;;7.20;4.20;;;;;;;14.41;85.34;97097.70;111972;1244;22498;-81
2023/10/03 04:59:13;;;;;;;6.40;4.00;;;;;;;14.45;85.51;97094.94;111979;1244;22462;-81
2023/10/03 05:01:43;;;;;;;8.10;4.20;;;;;;;14.52;85.55;97098.59;111990;1244;22498;-82
2023/10/03 05:04:12;;;;;;;8.20;3.70;;;;;;;14.59;85.42;97095.70;111924;1244;23960;-82
2023/10/03 05:06:40;;;;;;;;;;;;;;;14.63;85.33;97096.78;112009;1244;22552;-82
2023/10/03 05:09:08;;;;;;;7.40;3.70;;;;;;;14.65;85.32;97095.10;111981;1244;25826;-81
2023/10/03 05:11:37;;;;;;;7.30;4.00;;;;;;;14.76;85.31;97092.46;111982;1244;22459;-82
2023/10/03 05:14:06;;;;;;;6.80;4.20;;;;;;;14.87;85.14;97088.71;111945;1244;22604;-81
2023/10/03 05:16:35;;;;;;;10.20;4.30;;;;;;;15.02;85.10;97092.23;111966;1244;22535;-81
2023/10/03 05:19:06;;;;;;;7.10;4.20;;;;;;;15.19;85.04;97093.90;111975;1244;22497;-81
2023/10/03 05:21:37;;;;;;;6.90;3.70;;;;;;;15.35;84.68;97090.34;111966;1244;24230;-82
2023/10/03 05:24:10;;;;;;;7.10;3.90;;;;;;;15.52;84.47;97088.73;111958;1244;34890;-85
2023/10/03 05:26:39;;;;;;;6.10;3.80;;;;;;;15.70;83.98;97083.58;111967;1244;22539;-82
2023/10/03 05:29:10;;;;;;;7.40;4.20;;;;;;;15.90;84.02;97084.05;111990;1244;22547;-81
2023/10/03 05:31:41;;;;;;;7.80;4.00;;;;;;;16.13;83.63;97080.46;111991;1244;24195;-82
2023/10/03 05:34:10;;;;;;;7.60;4.20;;;;;;;16.34;83.52;97083.83;111909;1244;54654;-81
2023/10/03 05:36:39;;;;;;;8.10;4.00;;;;;;;16.53;82.92;97088.26;111979;1244;22498;-82
2023/10/03 05:39:11;;;;;;;8.20;4.00;;;;;;;16.62;82.36;97084.66;111985;1244;22517;-82
2023/10/03 05:41:41;;;;;;;5.60;3.50;;;;;;;16.74;82.13;97083.06;111966;1244;22501;-81
2023/10/03 05:44:12;;;;;;;7.30;4.20;;;;;;;16.88;81.65;97077.44;111939;1244;45639;-82
2023/10/03 05:46:42;;;;;;;7.10;4.20;;;;;;;16.95;80.69;97077.86;111993;1244;24212;-82
2023/10/03 05:49:11;;;;;;;8.10;3.70;;;;;;;16.94;79.93;97067.09;111987;1244;26593;-81
2023/10/03 05:51:40;;;;;;;8.40;4.40;;;;;;;16.93;79.63;97061.48;111966;1244;24192;-82
2023/10/03 05:54:08;;;;;;;6.30;3.70;;;;;;;16.88;78.95;97059.39;111975;1244;43206;-81
2023/10/03 05:56:37;;;;;;;6.60;4.40;;;;;;;16.90;78.73;97055.56;111976;1244;22635;-81
2023/10/03 05:59:06;;;;;;;9.50;4.50;;;;;;;16.90;78.21;97053.23;111988;1244;22500;-81
2023/10/03 06:01:39;;;;;;;7.90;4.10;;;;;;;16.88;78.33;97059.77;111979;1244;24972;-81
2023/10/03 06:04:08;;;;;;;6.60;3.90;;;;;;;17.00;78.67;97060.12;111599;1244;77835;-80
2023/10/03 06:06:36;;;;;;;7.00;4.20;;;;;;;17.31;78.73;97065.29;111974;1244;23978;-81
2023/10/03 06:09:05;;;;;;;6.90;3.80;;;;;;;17.56;77.85;97059.34;111984;1244;22545;-82
2023/10/03 06:11:36;;;;;;;6.20;3.70;;;;;;;17.69;77.37;97066.14;111977;1244;22506;-81
2023/10/03 06:14:05;;;;;;;8.00;3.70;;;;;;;17.88;76.68;97069.27;111946;1244;31226;-82
2023/10/03 06:16:33;;;;;;;7.80;3.80;;;;;;;17.99;75.54;97062.70;111973;1244;22462;-81
2023/10/03 06:19:03;;;;;;;6.70;4.40;;;;;;;18.04;75.34;97069.16;111985;1244;25228;-81
2023/10/03 06:21:33;;;;;;;8.20;4.00;;;;;;;18.10;75.21;97075.26;111961;1240;22552;-81
2023/10/03 06:24:02;;;;;;;5.40;3.00;;;;;;;18.24;75.64;97072.35;111936;1244;37995;-80
2023/10/03 06:26:31;;;;;;;7.70;4.60;;;;;;;18.48;74.68;97071.40;111980;1244;22511;-81
2023/10/03 06:28:59;;;;;;;5.90;3.60;;;;;;;18.68;75.22;97074.14;111951;1244;22510;-81
2023/10/03 06:31:28;;;;;;;7.20;4.00;;;;;;;19.09;75.11;97074.33;111978;1244;22650;-82
2023/10/03 06:33:56;;;;;;;5.70;3.20;;;;;;;19.18;73.17;97071.80;111947;1243;28902;-82
2023/10/03 06:36:25;;;;;;;7.40;3.60;;;;;;;19.04;72.53;97069.67;111956;1244;22500;-83
2023/10/03 06:38:53;;;;;;;7.00;3.40;;;;;;;18.93;72.45;97067.48;112009;1244;22502;-85
2023/10/03 06:41:22;;;;;;;7.80;4.20;;;;;;;19.00;72.43;97070.50;111984;1244;22652;-83
2023/10/03 06:43:51;;;;;;;6.10;3.80;;;;;;;19.13;72.42;97061.66;111980;1244;22662;-82
2023/10/03 06:46:20;;;;;;;7.00;4.20;;;;;;;19.15;71.04;97072.23;111950;1244;51220;-83
2023/10/03 06:48:51;;;;;;;6.80;3.70;;;;;;;18.95;70.60;97060.78;112005;1244;22530;-82
2023/10/03 06:51:20;;;;;;;7.00;3.60;;;;;;;18.95;71.57;97052.66;111989;1244;22501;-83
2023/10/03 06:53:49;;;;;;;9.00;3.40;;;;;;;19.03;71.26;97051.12;111987;1244;22513;-83
2023/10/03 06:56:19;;;;;;;7.80;4.00;;;;;;;18.92;70.88;97054.69;111931;1244;25096;-82
2023/10/03 06:58:48;;;;;;;5.90;3.60;;;;;;;19.07;70.98;97053.38;111958;1244;22504;-83
2023/10/03 07:01:17;;;;;;;7.60;3.70;;;;;;;19.15;71.27;97050.85;111968;1244;22711;-84
2023/10/03 07:03:47;;;;;;;6.00;3.40;;;;;;;19.15;70.34;97049.11;111944;1244;22517;-82
2023/10/03 07:06:17;;;;;;;8.40;3.90;;;;;;;19.07;70.31;97052.21;111901;1244;60387;-82
2023/10/03 07:08:46;;;;;;;7.70;3.70;;;;;;;19.13;71.14;97048.01;111937;1244;22720;-82
2023/10/03 07:11:16;;;;;;;6.60;3.60;;;;;;;19.30;70.92;97047.53;111936;1244;25234;-82
2023/10/03 07:13:45;;;;;;;7.60;3.50;;;;;;;19.33;70.64;97053.50;111955;1244;22501;-83
2023/10/03 07:16:15;;;;;;;8.70;4.00;;;;;;;19.48;70.61;97052.62;111623;1244;22550;-84
2023/10/03 07:18:46;;;;;;;7.90;3.60;;;;;;;19.58;70.38;97049.21;111652;1244;22485;-82
2023/10/03 07:21:16;;;;;;;6.20;3.40;;;;;;;19.63;69.81;97049.55;111982;1244;22515;-82
2023/10/03 07:23:45;;;;;;;5.30;3.50;;;;;;;19.73;69.50;97044.35;111941;1244;22489;-81
2023/10/03 07:26:13;;;;;;;;;;;;;;;19.82;69.93;97048.67;111925;1244;41321;-82
2023/10/03 07:28:43;;;;;;;6.00;3.20;;;;;;;19.95;69.44;97039.79;111974;1244;22500;-83
2023/10/03 07:31:14;;;;;;;6.40;3.30;;;;;;;19.96;69.47;97036.58;111963;1244;25227;-82
2023/10/03 07:33:45;;;;;;;7.90;3.40;;;;;;;20.03;69.28;97035.40;111941;1244;22643;-82
2023/10/03 07:36:17;;;;;;;8.30;3.70;;;;;;;20.04;69.25;97035.73;111928;1244;43548;-82
2023/10/03 07:38:49;;;;;;;6.80;3.50;;;;;;;20.04;68.43;97027.73;111691;1244;384271;-82
2023/10/03 07:41:19;;;;;;;6.70;3.40;;;;;;;19.91;68.56;97032.45;111589;1244;23845;-82
2023/10/03 07:43:49;;;;;;;6.70;3.20;;;;;;;19.89;68.75;97031.55;111651;1244;25317;-82
2023/10/03 07:46:25;;;;;;;16.50;5.30;;;;;;;19.96;68.47;97035.25;111621;1244;43824;-82
2023/10/03 07:48:54;;;;;;;6.80;3.50;;;;;;;19.91;68.27;97036.09;111670;1244;22530;-83
2023/10/03 07:51:26;;;;;;;7.10;3.80;;;;;;;19.91;68.03;97026.79;111942;1244;23263;-83
2023/10/03 07:53:55;;;;;;;5.60;3.40;;;;;;;19.90;67.62;97020.23;111977;1244;22611;-82
2023/10/03 07:56:30;;;;;;;7.60;3.80;;;;;;;19.82;67.47;97027.88;111970;1244;22532;-82
2023/10/03 07:59:01;;;;;;;6.40;3.40;;;;;;;19.85;67.83;97025.42;111934;1244;22520;-82
2023/10/03 08:01:32;;;;;;;7.80;4.20;;;;;;;19.92;67.46;97019.20;111992;1244;23924;-83
2023/10/03 08:04:00;;;;;;;8.90;3.70;;;;;;;19.92;67.20;97018.61;111939;1244;34850;-81
2023/10/03 08:06:33;;;;;;;7.30;3.80;;;;;;;19.96;67.69;97017.68;111963;1244;24271;-83
2023/10/03 08:09:03;;;;;;;6.70;3.60;;;;;;;20.06;67.13;97016.02;111937;1244;22525;-83
2023/10/03 08:11:32;;;;;;;6.50;3.50;;;;;;;20.01;66.57;97010.89;111936;1244;22498;-83
2023/10/03 08:14:11;;;;;;;7.20;3.90;;;;;;;20.02;66.99;97007.20;111933;1244;37522;-82
2023/10/03 08:16:41;;;;;;;6.50;3.80;;;;;;;20.11;67.19;97012.52;111945;1244;23114;-83
2023/10/03 08:19:21;;;;;;;8.10;3.80;;;;;;;20.17;66.60;97011.89;111929;1244;22526;-83
2023/10/03 08:21:49;;;;;;;6.70;3.60;;;;;;;20.23;66.45;97016.08;111960;1244;22498;-85
2023/10/03 08:24:24;;;;;;;5.90;3.50;;;;;;;20.26;66.54;97013.20;111929;1244;24525;-84
2023/10/03 08:26:54;;;;;;;7.50;3.90;;;;;;;20.31;66.35;97012.78;111958;1244;22516;-84
2023/10/03 08:29:23;;;;;;;8.30;3.40;;;;;;;20.36;65.95;97009.42;111923;1244;22495;-83
2023/10/03 08:31:57;;;;;;;7.20;3.20;;;;;;;20.44;66.65;97001.04;111956;1244;22531;-82
2023/10/03 08:34:26;;;;;;;6.80;3.80;;;;;;;20.55;66.27;97002.56;111898;1244;38788;-84
2023/10/03 08:36:58;;;;;;;7.60;4.00;;;;;;;20.64;66.15;97001.17;111946;1244;22517;-84
2023/10/03 08:39:27;;;;;;;6.50;3.50;;;;;;;20.75;65.95;96999.70;111933;1244;22581;-84
2023/10/03 08:42:12;;;;;;;7.60;4.00;;;;;;;20.83;65.13;96994.54;111946;1244;22479;-84
2023/10/03 08:44:49;;;;;;;7.40;4.00;;;;;;;20.82;65.13;96989.98;111961;1244;22541;-85
2023/10/03 08:47:28;;;;;;;7.60;4.00;;;;;;;20.84;64.54;96984.68;111935;1244;24165;-84
2023/10/03 08:50:10;;;;;;;8.90;4.10;;;;;;;20.87;64.28;96977.67;111963;1241;22503;-83
2023/10/03 08:52:46;;;;;;;8.80;4.00;;;;;;;20.90;64.00;96969.85;111914;1244;23432;-82
2023/10/03 08:55:19;;;;;;;7.40;3.80;;;;;;;20.95;64.19;96966.02;111911;1244;31259;-84
2023/10/03 08:57:48;;;;;;;7.20;3.90;;;;;;;20.99;63.85;96963.38;111974;1244;22499;-84
2023/10/03 09:00:16;;;;;;;;;;;;;;;20.95;62.78;96962.77;111951;1240;22476;-84
2023/10/03 09:02:51;;;;;;;6.60;3.90;;;;;;;20.93;62.84;96961.19;111955;1244;22495;-85
2023/10/03 09:05:24;;;;;;;6.50;4.00;;;;;;;20.95;62.62;96958.08;111925;1244;25943;-83
2023/10/03 09:07:55;;;;;;;6.50;3.80;;;;;;;20.94;62.68;96960.66;111936;1231;22503;-84
2023/10/03 09:10:27;;;;;;;8.60;4.50;;;;;;;21.04;62.68;96959.06;111956;1244;24192;-82
2023/10/03 09:13:03;;;;;;;7.00;3.90;;;;;;;21.08;62.56;96954.31;111954;1244;23627;-82
2023/10/03 09:15:37;;;;;;;8.40;4.20;;;;;;;21.11;62.69;96951.04;111895;1244;34918;-83
2023/10/03 09:18:10;;;;;;;8.00;4.30;;;;;;;21.15;62.70;96952.62;111917;1244;23207;-82
2023/10/03 09:20:42;;;;;;;11.10;4.80;;;;;;;21.15;62.54;96955.70;111926;1244;22600;-82
2023/10/03 09:23:14;;;;;;;7.50;4.10;;;;;;;21.17;62.35;96949.22;111904;1244;22619;-86
2023/10/03 09:25:52;;;;;;;9.70;4.70;;;;;;;21.20;62.30;96944.91;111861;1244;65002;-83
2023/10/03 09:28:27;;;;;;;8.60;3.80;;;;;;;21.21;62.40;96939.95;111943;1244;22627;-84
2023/10/03 09:30:57;;;;;;;7.10;4.10;;;;;;;21.28;62.81;96945.06;111629;1244;22514;-83
2023/10/03 09:33:27;;;;;;;7.70;4.70;;;;;;;21.43;63.01;96941.02;111630;1244;24192;-83
2023/10/03 09:35:57;;;;;;;;;;;;;;;21.56;63.37;96937.93;111601;1244;22473;-83
2023/10/03 09:38:45;;;;;;;8.50;4.30;;;;;;;21.61;62.47;96934.31;111655;1244;24840;-82
2023/10/03 09:41:17;;;;;;;7.90;3.90;;;;;;;21.62;62.38;96935.73;111912;1244;23240;-83
2023/10/03 09:43:53;;;;;;;6.50;3.70;;;;;;;21.67;62.48;96926.60;111933;1244;22598;-83
2023/10/03 09:46:38;;;;;;;6.40;3.80;;;;;;;21.68;62.29;96933.90;111958;1244;24332;-83
2023/10/03 09:49:10;;;;;;;7.80;3.80;;;;;;;21.77;62.75;96927.81;111962;1244;22503;-83
2023/10/03 09:51:51;;;;;;;7.00;4.10;;;;;;;21.89;62.71;96926.55;111933;1244;23224;-83
2023/10/03 09:54:30;;;;;;;7.40;4.20;;;;;;;21.94;62.39;96920.27;111906;1244;52539;-83
2023/10/03 09:57:00;;;;;;;7.00;4.20;;;;;;;21.99;61.89;96915.58;111617;1244;22482;-82
2023/10/03 09:59:32;;;;;;;7.20;3.90;;;;;;;22.02;61.98;96916.85;111621;1241;22489;-82
2023/10/03 10:02:02;;;;;;;7.60;3.80;;;;;;;21.99;61.63;96911.60;111596;1244;22509;-83
2023/10/03 10:04:33;;;;;;;6.70;4.00;;;;;;;21.96;62.08;96904.90;111642;1244;52101;-83
2023/10/03 10:07:16;;;;;;;7.10;4.00;;;;;;;22.00;62.11;96904.88;111952;1244;22506;-85
2023/10/03 10:09:55;;;;;;;8.80;4.10;;;;;;;22.07;62.14;96895.81;111937;1244;22753;-84
2023/10/03 10:12:24;;;;;;;7.20;4.40;;;;;;;22.10;62.24;96895.04;111949;1244;22511;-83
2023/10/03 10:15:26;;;;;;;8.80;4.30;;;;;;;22.18;62.52;96890.85;111867;1244;35173;-83
2023/10/03 10:17:56;;;;;;;7.10;4.30;;;;;;;22.26;61.84;96883.98;111903;1244;22626;-82
2023/10/03 10:20:33;;;;;;;8.40;4.30;;;;;;;22.33;62.09;96884.52;111918;1244;22502;-83
2023/10/03 10:23:19;;;;;;;6.80;3.70;;;;;;;22.40;61.46;96871.36;111921;1244;22908;-84
2023/10/03 10:25:56;;;;;;;7.90;4.20;;;;;;;22.38;61.22;96869.39;111584;1244;25474;-82
2023/10/03 10:28:33;;;;;;;7.00;4.00;;;;;;;22.42;61.28;96867.86;111590;1244;22501;-83
2023/10/03 10:31:22;;;;;;;7.20;4.00;;;;;;;22.48;60.98;96862.06;111634;1244;22509;-83
2023/10/03 10:34:11;;;;;;;8.00;3.90;;;;;;;22.57;60.66;96860.73;111615;1244;25337;-83
2023/10/03 10:36:53;;;;;;;;;;;;;;;22.60;60.25;96865.97;111630;1244;22506;-83
2023/10/03 10:39:23;;;;;;;6.80;3.60;;;;;;;22.67;61.12;96862.83;111614;1244;23726;-83
2023/10/03 10:42:09;;;;;;;7.20;4.00;;;;;;;22.73;60.49;96864.27;111932;1244;24200;-83
2023/10/03 10:44:58;;;;;;;8.40;4.20;;;;;;;22.78;60.81;96870.89;111859;1244;67082;-82
2023/10/03 10:47:28;;;;;;;7.20;4.00;;;;;;;22.86;60.66;96866.60;111928;1244;24541;-84
2023/10/03 10:49:58;;;;;;;6.40;4.00;;;;;;;22.89;60.66;96862.96;111958;1244;22527;-83
2023/10/03 10:52:29;;;;;;;9.70;3.80;;;;;;;22.98;60.94;96858.55;111950;1244;26585;-83
2023/10/03 10:54:59;;;;;;;7.60;4.20;;;;;;;23.08;60.26;96855.52;111912;1244;30655;-83
2023/10/03 10:57:31;;;;;;;7.30;3.60;;;;;;;23.12;59.86;96862.73;111957;1244;25457;-83
2023/10/03 11:00:12;;;;;;;6.80;3.90;;;;;;;23.22;59.09;96860.98;111943;1244;22536;-83
2023/10/03 11:02:44;;;;;;;6.90;3.60;;;;;;;23.26;57.87;96849.41;111921;1244;25403;-84
2023/10/03 11:05:12;;;;;;;8.30;4.00;;;;;;;23.25;56.70;96843.67;111828;1244;97373;-84
2023/10/03 11:07:49;;;;;;;9.00;4.10;;;;;;;23.20;55.73;96850.30;111912;1238;22455;-84
2023/10/03 11:10:18;;;;;;;8.10;4.10;;;;;;;23.20;56.43;96849.73;111901;1244;22504;-83
2023/10/03 11:12:59;;;;;;;8.80;4.90;;;;;;;23.30;57.14;96843.00;111949;1244;22656;-83
2023/10/03 11:15:27;;;;;;;9.30;5.00;;;;;;;23.39;55.99;96838.56;111898;1234;52628;-84
2023/10/03 11:17:58;;;;;;;7.90;4.40;;;;;;;23.38;55.47;96836.45;111919;1244;22502;-83
2023/10/03 11:20:27;;;;;;;9.70;4.50;;;;;;;23.35;54.62;96829.11;111908;1244;26086;-84
2023/10/03 11:22:56;;;;;;;8.90;4.10;;;;;;;23.35;54.97;96836.92;111914;1244;22487;-82
2023/10/03 11:25:25;;;;;;;7.30;4.30;;;;;;;23.37;54.49;96832.20;111850;1244;67168;-83
2023/10/03 11:28:05;;;;;;;7.80;4.40;;;;;;;23.39;54.65;96840.97;111979;1244;22494;-82
2023/10/03 11:30:33;;;;;;;8.80;5.00;;;;;;;23.42;54.29;96841.09;111922;1244;22589;-84
2023/10/03 11:33:02;;;;;;;7.50;4.30;;;;;;;23.43;54.69;96831.84;111911;1244;22508;-84
2023/10/03 11:35:31;;;;;;;9.20;4.60;;;;;;;23.47;54.95;96825.33;111889;1244;40525;-83
2023/10/03 11:38:07;;;;;;;10.00;5.00;;;;;;;23.56;55.20;96823.30;111909;1244;25396;-82
2023/10/03 11:40:40;;;;;;;10.00;5.20;;;;;;;23.64;55.40;96825.55;111934;1244;23961;-85
2023/10/03 11:43:12;;;;;;;9.40;4.70;;;;;;;23.68;54.80;96823.71;111926;1244;23117;-83
2023/10/03 11:45:46;;;;;;;9.00;4.80;;;;;;;23.69;55.05;96823.11;111944;1244;48833;-83